createdAt,value
2023-01-18T00:01:19.489Z,32.07
2023-01-18T00:03:48.217Z,31.50
2023-01-18T00:06:17.992Z,31.83
2023-01-18T00:08:46.401Z,28.20
2023-01-18T00:11:19.016Z,29.90
2023-01-18T00:13:49.372Z,28.57
2023-01-18T00:16:19.721Z,30.97
2023-01-18T00:18:52.418Z,28.13
2023-01-18T00:21:20.830Z,26.67
2023-01-18T00:23:49.214Z,25.73
2023-01-18T00:26:17.519Z,27.27
2023-01-18T00:28:46.184Z,27.33
2023-01-18T00:31:17.742Z,29.00
2023-01-18T00:33:47.609Z,26.53
2023-01-18T00:36:16.959Z,24.97
2023-01-18T00:38:51.476Z,26.40
2023-01-18T00:41:19.894Z,25.83
2023-01-18T00:43:47.474Z,25.40
2023-01-18T00:46:18.838Z,24.97
2023-01-18T00:48:48.261Z,23.63
2023-01-18T00:51:19.183Z,23.83
2023-01-18T00:53:47.925Z,27.20
2023-01-18T00:56:18.748Z,24.57
2023-01-18T00:58:47.440Z,23.87
2023-01-18T01:01:18.539Z,23.27
2023-01-18T01:04:04.389Z,27.47
2023-01-18T01:06:47.158Z,24.10
2023-01-18T01:09:18.648Z,21.80
2023-01-18T01:12:02.914Z,24.73
2023-01-18T01:14:49.405Z,22.87
2023-01-18T01:17:36.862Z,22.47
2023-01-18T01:20:23.515Z,20.23
2023-01-18T01:23:08.998Z,22.77
2023-01-18T01:25:55.354Z,22.80
2023-01-18T01:28:23.710Z,24.00
2023-01-18T01:30:52.360Z,25.57
2023-01-18T01:33:22.121Z,23.43
2023-01-18T01:35:51.283Z,23.63
2023-01-18T01:38:19.657Z,26.50
2023-01-18T01:40:57.364Z,24.10
2023-01-18T01:43:41.720Z,24.23
2023-01-18T01:46:33.964Z,22.97
2023-01-18T01:49:10.839Z,23.07
2023-01-18T01:51:42.438Z,22.90
2023-01-18T01:54:16.495Z,22.80
2023-01-18T01:56:48.279Z,22.73
2023-01-18T01:59:18.856Z,25.73
2023-01-18T02:01:48.430Z,23.30
2023-01-18T02:04:18.459Z,24.40
2023-01-18T02:06:46.868Z,25.63
2023-01-18T02:09:16.854Z,27.60
2023-01-18T02:11:45.394Z,25.00
2023-01-18T02:14:16.849Z,30.73
2023-01-18T02:17:01.208Z,26.63
2023-01-18T02:20:11.676Z,25.70
2023-01-18T02:23:07.326Z,29.10
2023-01-18T02:25:55.436Z,26.50
2023-01-18T02:28:34.054Z,25.43
2023-01-18T02:31:12.107Z,28.13
2023-01-18T02:33:47.056Z,30.73
2023-01-18T02:36:27.495Z,29.73
2023-01-18T02:39:01.541Z,31.57
2023-01-18T02:41:39.192Z,30.47
2023-01-18T02:44:41.222Z,32.43
2023-01-18T02:47:11.315Z,31.97
2023-01-18T02:49:39.630Z,33.10
2023-01-18T02:52:09.420Z,32.73
2023-01-18T02:54:41.502Z,32.70
2023-01-18T02:57:14.589Z,34.07
2023-01-18T03:00:04.395Z,33.87
2023-01-18T03:02:32.782Z,35.83
2023-01-18T03:05:01.666Z,33.97
2023-01-18T03:07:34.044Z,31.90
2023-01-18T03:10:06.428Z,32.30
2023-01-18T03:12:47.090Z,32.37
2023-01-18T03:15:23.811Z,30.30
2023-01-18T03:17:55.464Z,30.53
2023-01-18T03:20:27.628Z,30.33
2023-01-18T03:23:20.033Z,29.13
2023-01-18T03:25:52.469Z,29.63
2023-01-18T03:28:43.316Z,28.37
2023-01-18T03:31:32.161Z,29.87
2023-01-18T03:34:05.092Z,28.80
2023-01-18T03:36:37.725Z,27.97
2023-01-18T03:39:08.612Z,27.80
2023-01-18T03:41:39.296Z,26.97
2023-01-18T03:44:12.957Z,27.67
2023-01-18T03:46:43.865Z,25.63
2023-01-18T03:49:13.914Z,26.00
2023-01-18T03:52:00.789Z,26.97
2023-01-18T03:54:36.021Z,26.37
2023-01-18T03:57:08.649Z,27.07
2023-01-18T03:59:40.385Z,25.67
2023-01-18T04:02:09.909Z,27.43
2023-01-18T04:04:38.294Z,28.83
2023-01-18T04:07:07.947Z,26.90
2023-01-18T04:09:36.238Z,25.90
2023-01-18T04:12:05.156Z,25.80
2023-01-18T04:14:33.463Z,25.73
2023-01-18T04:17:04.283Z,24.03
2023-01-18T04:19:32.598Z,25.43
2023-01-18T04:22:00.968Z,23.53
2023-01-18T04:24:29.538Z,25.43
2023-01-18T04:26:57.889Z,26.07
2023-01-18T04:29:26.191Z,23.83
2023-01-18T04:31:54.891Z,24.73
2023-01-18T04:34:24.643Z,25.67
2023-01-18T04:36:53.672Z,24.73
2023-01-18T04:39:22.336Z,26.43
2023-01-18T04:41:50.792Z,25.67
2023-01-18T04:44:19.151Z,26.37
2023-01-18T04:46:52.828Z,26.27
2023-01-18T04:49:21.358Z,24.70
2023-01-18T04:51:51.069Z,24.30
2023-01-18T04:54:20.063Z,26.67
2023-01-18T04:56:48.557Z,24.40
2023-01-18T04:59:17.951Z,25.13
2023-01-18T05:01:46.407Z,24.03
2023-01-18T05:04:14.840Z,24.80
2023-01-18T05:06:44.704Z,23.30
2023-01-18T05:09:14.564Z,23.67
2023-01-18T05:11:43.870Z,23.57
2023-01-18T05:14:12.237Z,22.73
2023-01-18T05:16:40.888Z,22.83
2023-01-18T05:19:09.513Z,22.90
2023-01-18T05:21:37.936Z,23.63
2023-01-18T05:24:06.674Z,22.17
2023-01-18T05:26:36.669Z,22.57
2023-01-18T05:29:04.994Z,22.80
2023-01-18T05:31:33.461Z,22.07
2023-01-18T05:34:02.502Z,24.53
2023-01-18T05:36:30.795Z,24.07
2023-01-18T05:38:59.183Z,26.20
2023-01-18T05:41:27.609Z,24.47
2023-01-18T05:43:57.291Z,29.13
2023-01-18T05:46:25.609Z,29.27
2023-01-18T05:48:58.397Z,26.77
2023-01-18T05:51:27.114Z,25.73
2023-01-18T05:53:55.505Z,25.07
2023-01-18T05:56:23.891Z,28.97
2023-01-18T05:58:52.450Z,24.17
2023-01-18T06:01:22.241Z,24.47
2023-01-18T06:03:50.703Z,26.23
2023-01-18T06:06:19.025Z,26.63
2023-01-18T06:08:47.402Z,27.37
2023-01-18T06:11:15.829Z,28.93
2023-01-18T06:13:44.239Z,25.80
2023-01-18T06:16:13.409Z,26.30
2023-01-18T06:18:43.106Z,25.93
2023-01-18T06:21:12.226Z,24.63
2023-01-18T06:23:40.571Z,25.97
2023-01-18T06:26:08.974Z,26.70
2023-01-18T06:28:37.355Z,28.57
2023-01-18T06:31:08.274Z,29.83
2023-01-18T06:33:36.690Z,30.27
2023-01-18T06:36:07.167Z,28.03
2023-01-18T06:38:35.550Z,27.87
2023-01-18T06:41:04.547Z,28.47
2023-01-18T06:43:32.973Z,29.20
2023-01-18T06:46:03.029Z,27.80
2023-01-18T06:48:31.525Z,29.70
2023-01-18T06:51:00.205Z,29.83
2023-01-18T06:53:30.635Z,28.57
2023-01-18T06:56:01.960Z,28.37
2023-01-18T06:58:32.835Z,29.40
2023-01-18T07:01:02.517Z,28.20
2023-01-18T07:03:32.156Z,29.17
2023-01-18T07:06:02.736Z,30.20
2023-01-18T07:08:33.015Z,27.93
2023-01-18T07:11:06.486Z,28.13
2023-01-18T07:13:35.432Z,30.20
2023-01-18T07:16:04.461Z,29.50
2023-01-18T07:18:33.062Z,30.07
2023-01-18T07:21:03.131Z,28.83
2023-01-18T07:23:32.907Z,28.40
2023-01-18T07:26:04.062Z,27.70
2023-01-18T07:28:33.282Z,27.03
2023-01-18T07:31:03.435Z,26.80
2023-01-18T07:33:32.023Z,28.23
2023-01-18T07:36:00.560Z,27.10
2023-01-18T07:38:31.082Z,27.73
2023-01-18T07:41:05.437Z,26.53
2023-01-18T07:43:35.312Z,26.93
2023-01-18T07:46:05.123Z,27.20
2023-01-18T07:48:34.538Z,27.23
2023-01-18T07:51:04.747Z,27.20
2023-01-18T07:53:34.879Z,27.10
2023-01-18T07:56:07.742Z,25.63
2023-01-18T07:58:36.898Z,26.13
2023-01-18T08:01:07.333Z,25.23
2023-01-18T08:03:36.391Z,26.27
2023-01-18T08:06:07.768Z,25.40
2023-01-18T08:08:37.115Z,24.10
2023-01-18T08:11:08.168Z,23.67
2023-01-18T08:13:36.993Z,23.50
2023-01-18T08:16:08.529Z,22.60
2023-01-18T08:18:37.022Z,23.33
2023-01-18T08:21:06.147Z,22.73
2023-01-18T08:23:34.546Z,22.50
2023-01-18T08:26:04.288Z,21.57
2023-01-18T08:28:34.417Z,21.97
2023-01-18T08:31:17.985Z,20.57
2023-01-18T08:33:48.791Z,21.73
2023-01-18T08:36:19.487Z,20.70
2023-01-18T08:38:49.368Z,19.50
2023-01-18T08:41:17.758Z,18.40
2023-01-18T08:43:51.079Z,18.53
2023-01-18T08:46:19.893Z,17.93
2023-01-18T08:48:50.765Z,18.03
2023-01-18T08:51:20.405Z,18.27
2023-01-18T08:53:49.708Z,18.40
2023-01-18T08:56:18.546Z,18.17
2023-01-18T08:58:51.751Z,18.23
2023-01-18T09:01:20.393Z,17.60
2023-01-18T09:03:50.485Z,17.20
2023-01-18T09:06:18.988Z,17.13
2023-01-18T09:08:48.938Z,17.00
2023-01-18T09:11:18.838Z,17.20
2023-01-18T09:14:00.180Z,15.57
2023-01-18T09:16:29.460Z,17.53
2023-01-18T09:18:58.451Z,16.23
2023-01-18T09:21:29.368Z,15.80
2023-01-18T09:23:59.479Z,14.87
2023-01-18T09:26:30.762Z,15.10
2023-01-18T09:29:00.514Z,14.90
2023-01-18T09:31:30.751Z,13.43
2023-01-18T09:34:18.125Z,13.10
2023-01-18T09:36:50.318Z,12.80
2023-01-18T09:39:19.237Z,12.33
2023-01-18T09:41:53.588Z,11.67
2023-01-18T09:44:30.068Z,11.03
2023-01-18T09:47:03.314Z,9.47
2023-01-18T09:49:38.178Z,9.70
2023-01-18T09:52:22.618Z,9.43
2023-01-18T09:54:58.476Z,8.07
2023-01-18T09:57:40.499Z,8.40
2023-01-18T10:00:21.716Z,7.57
2023-01-18T10:02:53.819Z,6.30
2023-01-18T10:05:25.028Z,7.00
2023-01-18T10:08:04.191Z,7.43
2023-01-18T10:10:40.747Z,6.63
2023-01-18T10:13:39.238Z,5.80
2023-01-18T10:16:15.531Z,5.40
2023-01-18T10:18:48.284Z,5.90
2023-01-18T10:21:33.796Z,5.73
2023-01-18T10:24:37.517Z,6.03
2023-01-18T10:27:23.438Z,5.83
2023-01-18T10:30:08.990Z,5.77
2023-01-18T10:32:40.808Z,6.43
2023-01-18T10:35:16.886Z,6.80
2023-01-18T10:37:46.678Z,5.03
2023-01-18T10:46:59.598Z,6.43
2023-01-18T10:49:38.352Z,6.10
2023-01-18T10:52:28.468Z,5.37
2023-01-18T10:55:02.451Z,5.07
2023-01-18T10:57:33.676Z,5.03
2023-01-18T11:00:03.076Z,4.83
2023-01-18T11:02:36.726Z,5.60
2023-01-18T11:05:22.563Z,4.67
2023-01-18T11:08:15.602Z,5.70
2023-01-18T11:10:44.764Z,5.10
2023-01-18T11:13:27.768Z,4.77
2023-01-18T11:16:10.519Z,5.40
2023-01-18T11:18:40.286Z,4.43
2023-01-18T11:21:12.601Z,4.97
2023-01-18T11:23:43.833Z,4.97
2023-01-18T11:26:17.519Z,5.30
2023-01-18T11:28:49.598Z,4.33
2023-01-18T11:31:22.324Z,4.50
2023-01-18T11:33:53.816Z,4.50
2023-01-18T11:36:37.328Z,4.13
2023-01-18T11:39:26.082Z,5.80
2023-01-18T11:42:15.891Z,8.60
2023-01-18T11:44:49.486Z,7.67
2023-01-18T11:47:22.812Z,4.80
2023-01-18T11:49:58.857Z,5.13
2023-01-18T11:52:42.315Z,3.87
2023-01-18T11:55:23.790Z,3.27
2023-01-18T11:57:55.937Z,3.60
2023-01-18T12:00:28.137Z,4.20
2023-01-18T12:03:14.084Z,3.43
2023-01-18T12:05:50.122Z,3.53
2023-01-18T12:08:41.977Z,2.87
2023-01-18T12:11:21.435Z,3.50
2023-01-18T12:13:59.936Z,3.27
2023-01-18T12:16:44.905Z,3.73
2023-01-18T12:19:45.879Z,4.43
2023-01-18T12:22:37.300Z,2.83
2023-01-18T12:25:22.486Z,3.03
2023-01-18T12:28:00.692Z,2.90
2023-01-18T12:30:41.907Z,2.13
2023-01-18T12:33:21.461Z,1.80
2023-01-18T12:36:13.663Z,2.47
2023-01-18T12:38:46.627Z,2.80
2023-01-18T12:41:47.874Z,2.50
2023-01-18T12:44:43.600Z,2.47
2023-01-18T12:47:31.189Z,2.77
2023-01-18T12:50:00.814Z,2.97
2023-01-18T12:52:31.275Z,3.03
2023-01-18T12:55:02.802Z,2.93
2023-01-18T12:57:33.308Z,2.73
2023-01-18T13:00:09.343Z,2.00
2023-01-18T13:02:41.773Z,1.80
2023-01-18T13:05:19.199Z,1.63
2023-01-18T13:07:52.604Z,1.90
2023-01-18T13:10:24.448Z,2.23
2023-01-18T13:12:56.467Z,2.03
2023-01-18T13:15:34.395Z,1.43
2023-01-18T13:18:11.740Z,1.60
2023-01-18T13:21:03.530Z,1.50
2023-01-18T13:23:39.663Z,2.20
2023-01-18T13:26:21.067Z,1.67
2023-01-18T13:29:08.206Z,1.63
2023-01-18T13:31:36.956Z,2.30
2023-01-18T13:34:05.976Z,2.13
2023-01-18T13:36:45.735Z,2.30
2023-01-18T13:39:16.897Z,1.47
2023-01-18T13:42:17.794Z,2.00
2023-01-18T13:44:50.106Z,1.60
2023-01-18T13:47:45.892Z,1.20
2023-01-18T13:50:47.435Z,1.43
2023-01-18T13:53:31.622Z,1.40
2023-01-18T13:56:27.697Z,8.13
2023-01-18T13:59:00.684Z,3.33
2023-01-18T14:01:34.616Z,1.97
2023-01-18T14:04:23.818Z,1.57
2023-01-18T14:06:54.275Z,5.07
2023-01-18T14:09:36.431Z,2.47
2023-01-18T14:12:06.723Z,2.30
2023-01-18T14:14:37.297Z,1.42
2023-01-18T14:17:15.301Z,1.27
2023-01-18T14:20:16.622Z,1.10
2023-01-18T14:23:01.140Z,1.10
2023-01-18T14:25:50.680Z,0.90
2023-01-18T14:28:23.453Z,0.90
2023-01-18T14:30:58.832Z,1.23
2023-01-18T14:33:33.729Z,1.03
2023-01-18T14:36:03.922Z,0.93
2023-01-18T14:38:32.645Z,0.83
2023-01-18T14:41:05.749Z,1.63
2023-01-18T14:43:36.526Z,1.53
2023-01-18T14:46:11.350Z,2.10
2023-01-18T14:48:47.975Z,1.43
2023-01-18T14:51:19.835Z,1.90
2023-01-18T14:53:52.904Z,1.70
2023-01-18T14:56:24.013Z,3.40
2023-01-18T14:58:54.648Z,3.13
2023-01-18T15:01:30.963Z,3.23
2023-01-18T15:04:02.428Z,2.40
2023-01-18T15:06:38.991Z,1.63
2023-01-18T15:09:09.160Z,1.80
2023-01-18T15:11:39.114Z,1.27
2023-01-18T15:14:13.288Z,2.43
2023-01-18T15:16:42.155Z,1.93
2023-01-18T15:19:17.108Z,3.47
2023-01-18T15:21:46.113Z,3.40
2023-01-18T15:24:18.834Z,1.93
2023-01-18T15:26:51.494Z,2.57
2023-01-18T15:29:25.941Z,2.17
2023-01-18T15:31:57.282Z,1.97
2023-01-18T15:34:31.135Z,2.10
2023-01-18T15:37:02.234Z,2.80
2023-01-18T15:39:32.514Z,2.50
2023-01-18T15:42:06.811Z,3.53
2023-01-18T15:44:42.253Z,3.97
2023-01-18T15:47:22.919Z,10.70
2023-01-18T15:49:54.474Z,8.53
2023-01-18T15:52:38.954Z,4.30
2023-01-18T15:55:14.447Z,3.13
2023-01-18T15:57:43.589Z,2.33
2023-01-18T16:00:28.176Z,3.60
2023-01-18T16:02:57.059Z,4.10
2023-01-18T16:05:27.869Z,3.40
2023-01-18T16:08:18.576Z,4.33
2023-01-18T16:10:53.162Z,3.73
2023-01-18T16:13:32.298Z,4.30
2023-01-18T16:16:18.387Z,3.87
2023-01-18T16:18:49.527Z,3.47
2023-01-18T16:21:28.924Z,3.67
2023-01-18T16:23:58.818Z,3.43
2023-01-18T16:26:31.293Z,3.27
2023-01-18T16:29:09.586Z,4.63
2023-01-18T16:31:41.729Z,3.87
2023-01-18T16:34:24.096Z,3.73
2023-01-18T16:36:54.719Z,4.90
2023-01-18T16:39:24.665Z,4.50
2023-01-18T16:41:57.198Z,4.43
2023-01-18T16:44:27.604Z,4.53
2023-01-18T16:49:34.429Z,6.33
2023-01-18T16:52:08.384Z,5.83
2023-01-18T16:54:36.841Z,6.03
2023-01-18T16:57:05.276Z,5.20
2023-01-18T16:59:33.729Z,6.10
2023-01-18T17:02:02.390Z,5.53
2023-01-18T17:04:30.839Z,5.40
2023-01-18T17:06:59.200Z,6.50
2023-01-18T17:09:40.492Z,5.40
2023-01-18T17:12:16.020Z,6.27
2023-01-18T17:14:44.444Z,6.87
2023-01-18T17:17:13.187Z,5.73
2023-01-18T17:19:41.903Z,5.20
2023-01-18T17:22:10.394Z,5.27
2023-01-18T17:24:41.809Z,6.47
2023-01-18T17:27:14.765Z,5.77
2023-01-18T17:29:43.883Z,5.87
2023-01-18T17:32:15.944Z,6.13
2023-01-18T17:34:44.437Z,6.43
2023-01-18T17:37:13.347Z,6.03
2023-01-18T17:39:54.867Z,5.80
2023-01-18T17:42:30.982Z,6.50
2023-01-18T17:45:04.624Z,6.90
2023-01-18T17:47:34.698Z,6.87
2023-01-18T17:50:08.879Z,6.40
2023-01-18T17:52:39.195Z,8.13
2023-01-18T17:55:15.167Z,8.27
2023-01-18T17:57:44.851Z,7.67
2023-01-18T18:00:16.411Z,8.40
2023-01-18T18:02:46.328Z,7.40
2023-01-18T18:05:14.956Z,8.60
2023-01-18T18:07:44.609Z,8.10
2023-01-18T18:10:16.395Z,7.80
2023-01-18T18:12:44.971Z,7.23
2023-01-18T18:15:16.300Z,7.47
2023-01-18T18:17:44.648Z,8.23
2023-01-18T18:20:13.364Z,8.73
2023-01-18T18:22:42.165Z,7.80
2023-01-18T18:25:11.158Z,7.33
2023-01-18T18:27:45.857Z,7.70
2023-01-18T18:30:17.647Z,6.97
2023-01-18T18:32:46.006Z,7.73
2023-01-18T18:35:25.044Z,8.23
2023-01-18T18:37:55.656Z,7.37
2023-01-18T18:40:25.195Z,8.03
2023-01-18T18:43:02.445Z,7.23
2023-01-18T18:45:32.594Z,7.50
2023-01-18T18:48:01.455Z,7.43
2023-01-18T18:50:31.227Z,8.93
2023-01-18T18:53:00.468Z,8.17
2023-01-18T18:55:29.343Z,8.40
2023-01-18T18:58:00.515Z,8.03
2023-01-18T19:00:28.851Z,8.37
2023-01-18T19:03:02.591Z,8.13
2023-01-18T19:05:32.229Z,8.00
2023-01-18T19:08:02.706Z,9.43
2023-01-18T19:10:31.362Z,9.33
2023-01-18T19:13:03.135Z,9.13
2023-01-18T19:15:31.937Z,8.93
2023-01-18T19:18:00.916Z,9.60
2023-01-18T19:20:29.546Z,9.90
2023-01-18T19:22:58.653Z,9.97
2023-01-18T19:25:27.326Z,12.43
2023-01-18T19:27:55.777Z,12.73
2023-01-18T19:30:25.548Z,11.67
2023-01-18T19:32:54.194Z,10.67
2023-01-18T19:35:22.910Z,11.10
2023-01-18T19:37:51.296Z,10.03
2023-01-18T19:40:20.112Z,11.50
2023-01-18T19:42:54.852Z,11.03
2023-01-18T19:45:28.983Z,11.00
2023-01-18T19:47:59.718Z,12.67
2023-01-18T19:50:30.035Z,11.70
2023-01-18T19:52:59.048Z,12.10
2023-01-18T19:55:27.982Z,12.90
2023-01-18T19:57:58.284Z,12.60
2023-01-18T20:00:30.029Z,13.57
2023-01-18T20:02:59.615Z,13.50
2023-01-18T20:05:29.940Z,12.17
2023-01-18T20:07:58.329Z,13.40
2023-01-18T20:10:26.723Z,14.67
2023-01-18T20:12:56.386Z,13.80
2023-01-18T20:15:26.142Z,14.77
2023-01-18T20:17:56.065Z,13.70
2023-01-18T20:20:32.455Z,14.83
2023-01-18T20:23:04.343Z,14.77
2023-01-18T20:25:33.456Z,15.37
2023-01-18T20:28:02.929Z,15.00
2023-01-18T20:30:31.359Z,16.67
2023-01-18T20:33:02.213Z,16.13
2023-01-18T20:35:31.325Z,13.97
2023-01-18T20:37:59.973Z,13.73
2023-01-18T20:40:29.442Z,16.30
2023-01-18T20:42:58.241Z,16.90
2023-01-18T20:45:27.122Z,16.00
2023-01-18T20:47:55.506Z,16.70
2023-01-18T20:50:25.322Z,15.67
2023-01-18T20:52:54.950Z,16.27
2023-01-18T20:55:23.899Z,16.30
2023-01-18T20:57:54.635Z,16.53
2023-01-18T21:00:23.858Z,16.67
2023-01-18T21:02:52.447Z,17.43
2023-01-18T21:05:21.213Z,16.53
2023-01-18T21:07:50.999Z,17.30
2023-01-18T21:10:19.550Z,18.07
2023-01-18T21:12:49.092Z,17.67
2023-01-18T21:15:17.675Z,17.90
2023-01-18T21:17:46.104Z,17.33
2023-01-18T21:20:15.033Z,18.50
2023-01-18T21:22:44.065Z,16.77
2023-01-18T21:25:13.806Z,17.87
2023-01-18T21:27:43.683Z,16.27
2023-01-18T21:30:13.941Z,18.43
2023-01-18T21:32:43.163Z,18.30
2023-01-18T21:35:11.862Z,16.50
2023-01-18T21:37:40.634Z,17.77
2023-01-18T21:40:10.708Z,16.83
2023-01-18T21:42:57.232Z,17.40
2023-01-18T21:45:43.608Z,16.77
2023-01-18T21:48:12.034Z,16.37
2023-01-18T21:50:59.692Z,15.67
2023-01-18T21:53:46.771Z,16.33
2023-01-18T21:56:15.344Z,15.40
2023-01-18T21:58:54.295Z,14.87
2023-01-18T22:01:24.913Z,15.10
2023-01-18T22:04:11.867Z,16.13
2023-01-18T22:06:40.750Z,14.33
2023-01-18T22:09:09.369Z,14.33
2023-01-18T22:11:37.863Z,14.93
2023-01-18T22:14:09.563Z,13.03
2023-01-18T22:16:38.665Z,15.00
2023-01-18T22:19:07.204Z,12.17
2023-01-18T22:21:35.608Z,12.97
2023-01-18T22:24:04.288Z,14.10
2023-01-18T22:26:34.259Z,13.07
2023-01-18T22:29:09.459Z,13.00
2023-01-18T22:31:38.201Z,13.10
2023-01-18T22:34:07.002Z,13.40
2023-01-18T22:36:35.647Z,12.40
2023-01-18T22:39:04.275Z,12.93
2023-01-18T22:41:32.723Z,13.37
2023-01-18T22:44:02.369Z,13.67
2023-01-18T22:46:32.132Z,11.50
2023-01-18T22:49:00.683Z,11.97
2023-01-18T22:51:29.619Z,11.33
2023-01-18T22:53:57.934Z,11.23
2023-01-18T22:56:27.090Z,11.43
2023-01-18T22:58:55.428Z,11.57
2023-01-18T23:01:26.174Z,11.57
2023-01-18T23:03:58.149Z,11.50
2023-01-18T23:06:28.214Z,11.60
2023-01-18T23:08:57.218Z,12.00
2023-01-18T23:11:27.495Z,11.80
2023-01-18T23:14:17.554Z,11.80
2023-01-18T23:17:03.787Z,11.80
2023-01-18T23:19:34.593Z,11.83
2023-01-18T23:22:07.067Z,12.53
2023-01-18T23:24:37.799Z,12.00
2023-01-18T23:27:07.575Z,11.50
2023-01-18T23:29:36.343Z,10.93
2023-01-18T23:32:05.056Z,11.23
2023-01-18T23:34:34.846Z,10.27
2023-01-18T23:37:03.333Z,11.70
2023-01-18T23:39:49.109Z,10.83
2023-01-18T23:42:34.701Z,10.67
2023-01-18T23:45:20.596Z,12.20
2023-01-18T23:48:06.129Z,11.70
2023-01-18T23:50:53.583Z,11.23
2023-01-18T23:53:40.346Z,11.87
2023-01-18T23:56:09.050Z,12.73
2023-01-18T23:58:39.355Z,11.87
